Time;durP1;ratioP1;P1;durP2;ratioP2;P2;SDS_P1;SDS_P2;PMS_P1;PMS_P2;Temp;Humidity;BMP_temperature;BMP_pressure;BME280_temperature;BME280_humidity;BME280_pressure;Samples;Min_cycle;Max_cycle;Signal;HPM_P1;HPM_P2
2022/07/09 00:01:54;;;;;;;2.53;2.17;;;;;;;13.62;100.00;97431.84;5030861;27;102736;-66
2022/07/09 00:04:21;;;;;;;3.03;2.43;;;;;;;14.20;100.00;97440.19;5031330;28;102031;-66
2022/07/09 00:06:48;;;;;;;2.53;2.27;;;;;;;14.65;100.00;97430.84;5031379;28;102353;-65
2022/07/09 00:09:16;;;;;;;4.57;2.27;;;;;;;14.95;100.00;97441.91;5030624;28;102768;-65
2022/07/09 00:11:43;;;;;;;3.03;2.70;;;;;;;15.09;100.00;97436.97;5029814;28;102171;-65
2022/07/09 00:14:10;;;;;;;2.90;2.23;;;;;;;15.18;100.00;97425.53;5031183;28;103937;-66
2022/07/09 00:16:37;;;;;;;4.40;2.10;;;;;;;15.31;100.00;97429.66;5033688;27;104672;-65
2022/07/09 00:19:06;;;;;;;3.17;2.20;;;;;;;15.07;100.00;97423.81;5031133;28;102735;-65
2022/07/09 00:21:33;;;;;;;3.33;2.07;;;;;;;14.73;100.00;97422.41;5030471;28;102879;-65
2022/07/09 00:24:00;;;;;;;3.30;2.10;;;;;;;13.92;100.00;97418.91;5031060;28;101864;-65
2022/07/09 00:26:27;;;;;;;2.93;2.20;;;;;;;14.45;100.00;97424.47;5029656;28;104486;-65
2022/07/09 00:28:54;;;;;;;5.83;2.60;;;;;;;14.57;100.00;97415.25;5030459;27;102502;-65
2022/07/09 00:31:21;;;;;;;4.70;2.30;;;;;;;14.77;100.00;97417.34;5031090;27;102059;-66
2022/07/09 00:33:48;;;;;;;3.60;2.10;;;;;;;14.73;100.00;97411.69;5030969;27;102361;-65
2022/07/09 00:36:17;;;;;;;2.90;2.30;;;;;;;14.83;100.00;97413.66;5032463;28;103887;-66
2022/07/09 00:38:44;;;;;;;2.40;2.00;;;;;;;15.06;100.00;97414.16;5029353;27;105969;-65
2022/07/09 00:41:11;;;;;;;2.70;2.33;;;;;;;14.95;100.00;97411.63;5028818;28;105800;-65
2022/07/09 00:43:39;;;;;;;2.77;2.23;;;;;;;14.72;100.00;97410.03;5029450;28;101887;-65
2022/07/09 00:46:06;;;;;;;2.43;2.23;;;;;;;14.87;100.00;97409.41;5029331;28;103928;-65
2022/07/09 00:48:34;;;;;;;2.20;2.07;;;;;;;14.51;100.00;97402.84;5028380;28;105868;-65
2022/07/09 00:51:01;;;;;;;3.37;1.93;;;;;;;14.35;100.00;97409.09;5030630;28;101828;-65
2022/07/09 00:53:30;;;;;;;3.13;2.37;;;;;;;14.36;100.00;97408.03;5029323;28;104995;-65
2022/07/09 00:55:58;;;;;;;4.10;2.60;;;;;;;14.49;100.00;97398.81;5028718;28;105350;-65
2022/07/09 00:58:25;;;;;;;2.40;2.20;;;;;;;14.81;100.00;97405.03;5034317;28;102202;-65
2022/07/09 01:00:53;;;;;;;2.83;2.40;;;;;;;14.92;100.00;97396.03;5029939;28;103206;-65
2022/07/09 01:03:20;;;;;;;3.80;2.17;;;;;;;14.79;100.00;97394.59;5028826;28;101998;-65
2022/07/09 01:05:47;;;;;;;3.23;2.00;;;;;;;14.30;100.00;97397.50;5029024;28;105061;-65
2022/07/09 01:08:14;;;;;;;5.03;2.60;;;;;;;14.52;100.00;97388.41;5028488;28;105911;-65
2022/07/09 01:10:43;;;;;;;2.73;2.20;;;;;;;14.80;100.00;97390.84;5029077;28;102026;-65
2022/07/09 01:13:11;;;;;;;2.47;2.20;;;;;;;14.89;100.00;97380.50;5030158;28;102321;-65
2022/07/09 01:15:38;;;;;;;3.83;2.00;;;;;;;15.02;100.00;97383.56;5028501;28;105784;-65
2022/07/09 01:18:05;;;;;;;2.30;1.80;;;;;;;15.12;100.00;97380.19;5030364;28;101847;-65
2022/07/09 01:20:33;;;;;;;2.10;1.90;;;;;;;14.92;100.00;97377.28;5031541;28;104877;-65
2022/07/09 01:23:01;;;;;;;2.43;1.93;;;;;;;14.74;100.00;97375.81;5028959;28;101871;-65
2022/07/09 01:25:35;;;;;;;2.60;1.80;;;;;;;14.59;100.00;97377.50;5030089;27;102315;-65
2022/07/09 01:28:05;;;;;;;2.20;2.00;;;;;;;14.72;100.00;97371.75;5029823;28;103265;-65
2022/07/09 01:30:33;;;;;;;3.27;2.00;;;;;;;14.84;100.00;97375.09;5028731;28;102053;-65
2022/07/09 01:33:01;;;;;;;3.27;2.20;;;;;;;14.90;100.00;97368.72;5030129;28;102376;-66
2022/07/09 01:35:28;;;;;;;2.50;2.00;;;;;;;14.91;100.00;97373.00;5028141;28;103904;-65
2022/07/09 01:37:56;;;;;;;4.03;2.17;;;;;;;14.92;100.00;97372.75;5030007;27;101796;-65
2022/07/09 01:40:24;;;;;;;4.03;2.30;;;;;;;15.01;100.00;97370.44;5028393;28;103946;-66
2022/07/09 01:42:52;;;;;;;3.10;2.23;;;;;;;14.87;100.00;97362.00;5032936;27;102566;-65
2022/07/09 01:45:19;;;;;;;2.07;1.97;;;;;;;14.40;100.00;97360.16;5030350;27;102443;-66
2022/07/09 01:47:46;;;;;;;3.63;2.30;;;;;;;14.55;100.00;97360.34;5028970;28;102114;-65
2022/07/09 01:50:13;;;;;;;2.40;2.20;;;;;;;14.56;100.00;97356.59;5029147;27;102070;-65
2022/07/09 01:52:40;;;;;;;2.70;2.47;;;;;;;14.09;100.00;97350.94;5033821;27;102357;-65
2022/07/09 01:55:10;;;;;;;2.20;2.03;;;;;;;14.17;100.00;97347.03;5031184;28;105874;-66
2022/07/09 01:57:37;;;;;;;2.37;2.17;;;;;;;14.31;100.00;97349.09;5033697;28;101882;-65
2022/07/09 02:00:05;;;;;;;2.40;2.20;;;;;;;14.53;100.00;97354.41;5033111;27;103050;-65
2022/07/09 02:02:39;;;;;;;3.33;2.20;;;;;;;14.73;100.00;97346.59;5029417;28;102556;-65
2022/07/09 02:05:07;;;;;;;2.60;2.00;;;;;;;14.77;100.00;97345.03;5036678;28;102177;-65
2022/07/09 02:07:35;;;;;;;2.10;1.97;;;;;;;14.89;100.00;97340.31;5032892;28;103224;-65
2022/07/09 02:10:02;;;;;;;3.93;2.47;;;;;;;14.72;100.00;97339.63;5033260;28;101998;-65
2022/07/09 02:12:31;;;;;;;2.27;2.13;;;;;;;14.68;100.00;97341.19;5031886;28;105717;-65
2022/07/09 02:14:58;;;;;;;2.30;2.10;;;;;;;14.78;100.00;97338.63;5031054;28;105694;-65
2022/07/09 02:17:25;;;;;;;6.83;2.43;;;;;;;14.79;100.00;97343.72;5032940;28;102001;-65
2022/07/09 02:19:52;;;;;;;3.53;2.00;;;;;;;14.81;100.00;97343.44;5031711;28;104098;-65
2022/07/09 02:22:20;;;;;;;3.30;2.03;;;;;;;14.52;100.00;97339.41;5032528;28;103055;-66
2022/07/09 02:24:47;;;;;;;1.80;1.70;;;;;;;14.43;100.00;97335.56;5031810;28;102091;-66
2022/07/09 02:27:14;;;;;;;3.13;2.13;;;;;;;14.56;100.00;97337.84;5036132;28;102637;-66
2022/07/09 02:29:43;;;;;;;2.57;2.00;;;;;;;14.71;100.00;97340.69;5031661;28;102088;-66
2022/07/09 02:32:10;;;;;;;3.37;2.00;;;;;;;14.80;100.00;97337.31;5031158;28;106142;-65
2022/07/09 02:34:37;;;;;;;2.50;2.30;;;;;;;14.54;100.00;97338.09;5030866;28;105102;-66
2022/07/09 02:37:05;;;;;;;2.50;1.90;;;;;;;14.50;100.00;97330.84;5031541;28;101892;-66
2022/07/09 02:39:33;;;;;;;2.53;2.03;;;;;;;14.39;100.00;97331.78;5031606;28;105320;-66
2022/07/09 02:42:00;;;;;;;2.27;1.90;;;;;;;14.52;100.00;97328.72;5030784;28;105330;-66
2022/07/09 02:44:27;;;;;;;3.27;2.20;;;;;;;14.53;100.00;97327.66;5031281;28;102062;-66
2022/07/09 02:46:56;;;;;;;1.80;1.70;;;;;;;14.63;100.00;97319.72;5033982;28;105351;-65
2022/07/09 02:49:23;;;;;;;3.33;2.10;;;;;;;14.64;100.00;97327.50;5032688;28;101762;-65
2022/07/09 02:51:51;;;;;;;2.20;2.00;;;;;;;14.78;100.00;97327.91;5031243;28;105285;-65
2022/07/09 02:54:18;;;;;;;2.10;1.90;;;;;;;14.65;100.00;97322.94;5030586;28;105537;-65
2022/07/09 02:56:45;;;;;;;3.60;2.00;;;;;;;14.53;100.00;97323.09;5031197;28;102059;-65
2022/07/09 02:59:12;;;;;;;2.37;1.90;;;;;;;14.44;100.00;97321.94;5031195;28;105749;-65
2022/07/09 03:01:39;;;;;;;1.70;1.60;;;;;;;14.35;100.00;97326.13;5030490;27;102620;-65
2022/07/09 03:04:08;;;;;;;3.00;2.07;;;;;;;14.34;100.00;97326.38;5032317;28;101909;-65
2022/07/09 03:06:36;;;;;;;3.27;2.20;;;;;;;14.40;100.00;97320.81;5032227;28;102399;-66
2022/07/09 03:09:03;;;;;;;2.83;1.90;;;;;;;14.54;100.00;97327.41;5035011;27;104947;-66
2022/07/09 03:11:30;;;;;;;2.17;1.97;;;;;;;14.32;100.00;97323.94;5031048;28;105181;-66
2022/07/09 03:13:58;;;;;;;4.70;2.40;;;;;;;14.49;100.00;97326.56;5031885;28;103162;-66
2022/07/09 03:16:25;;;;;;;3.37;2.00;;;;;;;14.50;100.00;97325.50;5032238;28;101827;-65
2022/07/09 03:18:53;;;;;;;4.93;2.23;;;;;;;14.37;100.00;97321.34;5032234;27;102494;-65
2022/07/09 03:21:22;;;;;;;3.00;2.00;;;;;;;14.54;100.00;97316.69;5031502;28;102782;-65
2022/07/09 03:23:49;;;;;;;2.47;2.20;;;;;;;14.45;100.00;97322.75;5031941;27;101858;-66
2022/07/09 03:26:16;;;;;;;4.03;2.20;;;;;;;14.51;100.00;97319.06;5030731;28;105329;-66
2022/07/09 03:28:43;;;;;;;4.03;2.20;;;;;;;14.22;100.00;97315.00;5030213;28;103835;-66
2022/07/09 03:31:10;;;;;;;2.13;1.90;;;;;;;14.53;100.00;97324.97;5035651;27;101981;-65
2022/07/09 03:33:37;;;;;;;2.07;1.87;;;;;;;14.74;100.00;97321.44;5029285;28;105481;-66
2022/07/09 03:36:05;;;;;;;2.20;1.80;;;;;;;14.87;100.00;97321.03;5030398;28;101969;-65
2022/07/09 03:38:34;;;;;;;2.93;1.80;;;;;;;14.88;100.00;97322.66;5030534;28;105112;-65
2022/07/09 03:41:02;;;;;;;3.17;2.10;;;;;;;14.91;100.00;97311.41;5029935;28;105121;-65
2022/07/09 03:43:29;;;;;;;3.13;2.00;;;;;;;14.74;100.00;97322.25;5031391;28;101953;-65
2022/07/09 03:45:56;;;;;;;2.23;1.67;;;;;;;14.71;100.00;97321.97;5030377;28;103927;-65
2022/07/09 03:48:22;;;;;;;1.83;1.73;;;;;;;14.77;100.00;97319.03;5028987;28;105293;-65
2022/07/09 03:50:50;;;;;;;3.07;2.00;;;;;;;14.69;100.00;97314.16;5030257;28;101967;-65
2022/07/09 03:53:17;;;;;;;6.43;2.37;;;;;;;14.43;100.00;97314.16;5034506;28;101674;-65
2022/07/09 03:55:46;;;;;;;2.77;1.93;;;;;;;14.62;100.00;97318.09;5031477;28;101706;-65
2022/07/09 03:58:13;;;;;;;2.13;1.93;;;;;;;14.80;100.00;97315.06;5031490;28;102426;-65
2022/07/09 04:00:40;;;;;;;2.33;2.13;;;;;;;14.90;100.00;97321.34;5031071;28;103144;-65
2022/07/09 04:03:07;;;;;;;1.80;1.70;;;;;;;14.93;100.00;97317.34;5031503;28;101870;-65
2022/07/09 04:05:34;;;;;;;2.60;1.70;;;;;;;15.04;100.00;97319.81;5031624;27;102922;-65
2022/07/09 04:08:02;;;;;;;3.37;1.83;;;;;;;15.12;100.00;97326.59;5029207;28;103853;-65
2022/07/09 04:10:29;;;;;;;3.20;1.70;;;;;;;15.22;100.00;97324.00;5030228;28;101983;-65
2022/07/09 04:12:58;;;;;;;3.40;1.80;;;;;;;15.27;100.00;97324.03;5030954;27;102881;-66
2022/07/09 04:15:25;;;;;;;4.03;2.00;;;;;;;15.31;100.00;97325.16;5034168;28;103245;-65
2022/07/09 04:17:52;;;;;;;4.03;1.73;;;;;;;15.33;100.00;97329.22;5031340;28;102888;-66
2022/07/09 04:20:19;;;;;;;2.30;2.00;;;;;;;15.29;100.00;97324.56;5028844;28;103838;-65
2022/07/09 04:22:46;;;;;;;3.07;2.13;;;;;;;15.13;100.00;97323.66;5031297;28;101836;-65
2022/07/09 04:25:14;;;;;;;3.43;1.87;;;;;;;15.25;100.00;97336.84;5031218;28;102364;-65
2022/07/09 04:27:41;;;;;;;3.83;1.90;;;;;;;15.33;100.00;97334.56;5030457;28;102561;-65
2022/07/09 04:30:11;;;;;;;3.57;1.80;;;;;;;15.42;100.00;97337.59;5031132;28;101834;-66
2022/07/09 04:32:38;;;;;;;4.40;2.10;;;;;;;15.58;100.00;97337.41;5029390;28;106615;-65
2022/07/09 04:35:07;;;;;;;3.43;1.70;;;;;;;15.60;100.00;97337.16;5030350;28;102511;-66
2022/07/09 04:37:34;;;;;;;4.50;2.07;;;;;;;15.65;100.00;97337.19;5034391;28;101776;-65
2022/07/09 04:40:01;;;;;;;3.77;2.20;;;;;;;15.70;100.00;97337.22;5030240;27;102595;-66
2022/07/09 04:42:28;;;;;;;6.30;2.30;;;;;;;15.82;100.00;97340.50;5030936;28;101950;-66
2022/07/09 04:44:57;;;;;;;2.47;1.90;;;;;;;15.67;100.00;97332.38;5030788;27;103931;-65
2022/07/09 04:47:25;;;;;;;5.60;2.30;;;;;;;15.48;100.00;97348.06;5029549;28;104601;-66
2022/07/09 04:49:53;;;;;;;3.63;2.07;;;;;;;15.53;100.00;97336.59;5030600;28;101858;-65
2022/07/09 04:52:38;;;;;;;3.97;2.00;;;;;;;15.67;100.00;97333.19;5090876;27;101791;-65
2022/07/09 04:55:06;;;;;;;2.40;1.90;;;;;;;15.51;100.00;97336.84;5087452;27;102588;-65
2022/07/09 04:57:33;;;;;;;3.60;2.00;;;;;;;15.48;100.00;97328.50;5088218;27;101760;-65
2022/07/09 05:00:01;;;;;;;5.70;2.10;;;;;;;15.40;100.00;97337.00;5103902;27;105305;-65
2022/07/09 05:02:29;;;;;;;3.00;1.70;;;;;;;15.65;100.00;97332.63;5087195;27;102569;-65
2022/07/09 05:04:56;;;;;;;3.77;2.10;;;;;;;15.89;100.00;97328.47;5088036;27;101978;-65
2022/07/09 05:07:23;;;;;;;4.17;2.10;;;;;;;15.61;100.00;97333.41;5088223;27;102941;-67
2022/07/09 05:09:52;;;;;;;3.03;1.87;;;;;;;15.58;100.00;97339.31;5087493;27;102747;-67
2022/07/09 05:12:19;;;;;;;3.30;1.83;;;;;;;15.50;100.00;97331.72;5106771;27;101886;-67
2022/07/09 05:14:46;;;;;;;4.83;1.83;;;;;;;15.41;100.00;97334.09;5087248;27;102669;-67
2022/07/09 05:17:13;;;;;;;4.00;1.80;;;;;;;14.91;100.00;97328.28;5087800;27;101895;-67
2022/07/09 05:19:41;;;;;;;5.57;2.10;;;;;;;14.58;100.00;97330.38;5087671;27;102608;-65
2022/07/09 05:22:07;;;;;;;4.03;2.43;;;;;;;14.80;100.00;97323.09;5085351;27;105925;-65
2022/07/09 05:24:34;;;;;;;4.90;2.20;;;;;;;14.99;100.00;97324.34;5087693;27;101859;-65
2022/07/09 05:27:04;;;;;;;2.93;2.37;;;;;;;14.84;100.00;97329.56;5086371;27;103543;-65
2022/07/09 05:29:31;;;;;;;3.80;2.03;;;;;;;15.01;100.00;97328.38;5085632;27;105602;-65
2022/07/09 05:31:59;;;;;;;5.43;2.43;;;;;;;15.39;100.00;97346.13;5087256;27;101929;-65
2022/07/09 05:34:26;;;;;;;2.27;2.07;;;;;;;15.33;100.00;97355.19;5090568;27;102356;-65
2022/07/09 05:36:54;;;;;;;5.53;2.20;;;;;;;15.36;100.00;97352.00;5087516;27;101846;-65
2022/07/09 05:39:22;;;;;;;6.33;2.30;;;;;;;15.35;100.00;97347.69;5087591;27;102688;-65
2022/07/09 05:41:49;;;;;;;4.40;2.30;;;;;;;15.57;100.00;97348.38;5085263;27;103901;-65
2022/07/09 05:44:18;;;;;;;4.47;2.13;;;;;;;15.84;100.00;97338.34;5087288;27;101841;-65
2022/07/09 05:46:45;;;;;;;2.77;1.90;;;;;;;16.10;100.00;97350.84;5086826;27;102825;-65
2022/07/09 05:49:13;;;;;;;3.70;2.60;;;;;;;16.14;100.00;97347.38;5086810;27;102968;-65
2022/07/09 05:51:40;;;;;;;3.90;2.50;;;;;;;15.98;100.00;97347.56;5086486;27;101807;-65
2022/07/09 05:54:08;;;;;;;3.57;2.10;;;;;;;15.31;100.00;97338.53;5087387;27;102446;-65
2022/07/09 05:56:36;;;;;;;7.73;2.60;;;;;;;15.57;100.00;97348.38;5088524;27;103766;-65
2022/07/09 05:59:03;;;;;;;2.23;1.97;;;;;;;15.38;100.00;97344.50;5085651;27;105121;-65
2022/07/09 06:01:32;;;;;;;4.10;2.23;;;;;;;15.53;100.00;97348.09;5085021;27;106321;-65
2022/07/09 06:03:59;;;;;;;4.93;2.47;;;;;;;15.51;100.00;97338.69;5071879;27;101978;-65
2022/07/09 06:06:26;;;;;;;4.10;2.40;;;;;;;15.67;100.00;97348.44;5073382;27;102881;-65
2022/07/09 06:08:53;;;;;;;4.23;2.00;;;;;;;15.66;100.00;97350.34;5071003;27;105441;-65
2022/07/09 06:11:21;;;;;;;3.77;2.47;;;;;;;15.54;100.00;97354.28;5071629;27;101957;-65
2022/07/09 06:13:48;;;;;;;2.80;2.10;;;;;;;15.54;100.00;97343.56;5071829;27;103476;-65
2022/07/09 06:16:14;;;;;;;3.20;2.10;;;;;;;15.76;100.00;97347.69;5070693;27;105641;-65
2022/07/09 06:18:43;;;;;;;4.07;2.37;;;;;;;15.57;100.00;97343.84;5074966;27;101873;-65
2022/07/09 06:21:10;;;;;;;5.67;2.20;;;;;;;15.88;100.00;97344.81;5070904;27;105762;-65
2022/07/09 06:23:38;;;;;;;6.20;2.30;;;;;;;16.14;100.00;97344.69;5071613;27;101990;-65
2022/07/09 06:26:05;;;;;;;2.87;2.20;;;;;;;16.02;100.00;97351.34;5071624;27;105221;-65
2022/07/09 06:28:33;;;;;;;5.17;2.10;;;;;;;15.74;100.00;97349.84;5070733;27;105275;-65
2022/07/09 06:31:00;;;;;;;3.63;2.10;;;;;;;16.44;100.00;97350.22;5071444;27;101978;-65
2022/07/09 06:33:27;;;;;;;2.80;2.07;;;;;;;16.50;100.00;97342.97;5071399;27;105454;-65
2022/07/09 06:35:57;;;;;;;3.00;1.80;;;;;;;16.37;100.00;97349.63;5070727;27;104015;-65
2022/07/09 06:38:24;;;;;;;2.83;2.03;;;;;;;16.23;100.00;97342.28;5071493;27;102137;-65
2022/07/09 06:40:54;;;;;;;3.87;2.07;;;;;;;16.08;100.00;97353.00;5073971;27;104985;-65
2022/07/09 06:43:21;;;;;;;4.20;1.93;;;;;;;15.82;100.00;97349.38;5071358;27;102509;-65
2022/07/09 06:45:53;;;;;;;3.37;2.10;;;;;;;15.94;100.00;97344.59;5071233;27;105188;-65
2022/07/09 06:48:20;;;;;;;5.30;2.20;;;;;;;16.07;100.00;97356.75;5070520;27;105577;-65
2022/07/09 06:50:47;;;;;;;2.03;1.70;;;;;;;15.81;100.00;97339.69;5071872;27;102026;-65
2022/07/09 06:53:16;;;;;;;2.20;1.90;;;;;;;16.18;100.00;97350.34;5072641;27;104347;-65
2022/07/09 06:55:43;;;;;;;2.97;1.87;;;;;;;16.33;100.00;97345.03;5070548;27;103775;-65
2022/07/09 06:58:10;;;;;;;3.00;1.90;;;;;;;16.88;100.00;97335.25;5071086;27;101873;-65
2022/07/09 07:00:38;;;;;;;2.73;2.00;;;;;;;16.75;100.00;97340.34;5070894;27;105304;-65
2022/07/09 07:03:05;;;;;;;4.33;2.30;;;;;;;16.68;100.00;97339.81;5073357;27;102236;-65
2022/07/09 07:05:32;;;;;;;3.33;2.07;;;;;;;17.00;100.00;97348.44;5070987;27;105822;-65
2022/07/09 07:08:14;;;;;;;2.53;2.03;;;;;;;16.90;100.00;97343.06;5070408;27;106181;-65
2022/07/09 07:10:44;;;;;;;2.90;1.90;;;;;;;16.53;100.00;97345.13;4972151;28;102170;-65
2022/07/09 07:13:12;;;;;;;4.13;1.93;;;;;;;16.28;100.00;97350.38;4988808;28;104967;-65
2022/07/09 07:15:39;;;;;;;5.77;2.30;;;;;;;16.83;100.00;97350.56;4970553;28;105799;-65
2022/07/09 07:18:05;;;;;;;3.07;1.80;;;;;;;16.81;100.00;97348.16;4988804;28;101909;-65
2022/07/09 07:20:33;;;;;;;4.43;1.97;;;;;;;17.03;100.00;97346.03;4972180;28;105745;-65
2022/07/09 07:23:00;;;;;;;3.13;2.03;;;;;;;16.72;100.00;97351.59;4991163;28;106083;-65
2022/07/09 07:25:27;;;;;;;4.67;1.80;;;;;;;16.74;100.00;97346.78;4972300;28;105007;-65
2022/07/09 07:27:58;;;;;;;4.40;2.03;;;;;;;16.74;100.00;97347.59;4971484;28;105387;-65
2022/07/09 07:30:24;;;;;;;3.90;2.23;;;;;;;17.25;100.00;97333.13;4988621;28;101932;-65
2022/07/09 07:32:52;;;;;;;5.17;1.90;;;;;;;17.51;100.00;97336.63;4972087;28;105632;-65
2022/07/09 07:35:19;;;;;;;3.17;1.93;;;;;;;17.43;100.00;97332.59;4987846;28;105409;-65
2022/07/09 07:37:47;;;;;;;4.10;2.20;;;;;;;17.68;100.00;97329.06;4988774;28;102364;-65
2022/07/09 07:40:14;;;;;;;3.43;1.90;;;;;;;17.01;100.00;97326.66;4988578;28;105836;-65
2022/07/09 07:42:41;;;;;;;3.43;2.03;;;;;;;17.31;100.00;97328.53;4971230;28;104405;-65
2022/07/09 07:45:12;;;;;;;4.20;2.00;;;;;;;17.50;100.00;97324.28;4975381;28;101932;-65
2022/07/09 07:47:39;;;;;;;2.70;1.90;;;;;;;17.78;100.00;97318.31;5018241;27;103841;-65
2022/07/09 07:50:07;;;;;;;1.90;1.70;;;;;;;17.73;100.00;97313.75;5069954;27;101887;-65
2022/07/09 07:52:35;;;;;;;3.33;1.80;;;;;;;18.23;100.00;97310.88;5069856;27;105591;-65
2022/07/09 07:55:01;;;;;;;2.70;1.80;;;;;;;18.44;100.00;97317.81;5069609;27;105604;-65
2022/07/09 07:57:29;;;;;;;5.30;2.00;;;;;;;18.44;100.00;97314.31;5070072;27;102035;-65
2022/07/09 07:59:56;;;;;;;3.30;1.80;;;;;;;18.67;100.00;97319.00;5070119;27;105323;-65
2022/07/09 08:02:24;;;;;;;3.40;1.90;;;;;;;19.18;100.00;97320.28;5069124;27;105691;-65
2022/07/09 08:04:51;;;;;;;3.07;1.80;;;;;;;19.28;100.00;97312.94;5069974;27;102066;-65
2022/07/09 08:07:19;;;;;;;2.43;1.43;;;;;;;19.12;100.00;97316.03;5072847;27;105193;-65
2022/07/09 08:09:46;;;;;;;5.60;1.90;;;;;;;19.19;100.00;97319.19;5069946;27;101961;-65
2022/07/09 08:12:13;;;;;;;3.07;1.70;;;;;;;19.38;100.00;97318.25;5069768;27;104985;-65
2022/07/09 08:14:40;;;;;;;2.87;1.70;;;;;;;18.73;100.00;97321.41;5069196;27;104283;-65
2022/07/09 08:17:07;;;;;;;3.67;1.67;;;;;;;19.30;100.00;97320.75;5069103;27;102041;-65
2022/07/09 08:19:36;;;;;;;4.87;1.87;;;;;;;19.68;100.00;97319.84;5069435;27;105200;-65
2022/07/09 08:22:03;;;;;;;3.47;1.80;;;;;;;19.68;100.00;97319.84;5069038;27;105919;-65
2022/07/09 08:24:31;;;;;;;1.90;1.70;;;;;;;19.98;100.00;97322.22;5069747;27;101956;-65
2022/07/09 08:26:58;;;;;;;3.07;1.40;;;;;;;19.98;100.00;97319.53;5069229;27;105006;-65
2022/07/09 08:29:26;;;;;;;4.40;2.27;;;;;;;20.02;100.00;97317.88;5072551;27;103699;-65
2022/07/09 08:31:53;;;;;;;6.73;1.63;;;;;;;20.10;100.00;97319.97;5069223;27;105391;-65
2022/07/09 08:34:20;;;;;;;3.70;1.80;;;;;;;19.98;100.00;97312.22;5068988;27;105939;-64
2022/07/09 08:36:49;;;;;;;7.90;1.80;;;;;;;20.19;100.00;97316.34;5069393;27;101999;-65
2022/07/09 08:39:17;;;;;;;3.17;1.90;;;;;;;20.32;100.00;97317.53;5052515;27;105111;-62
2022/07/09 08:41:44;;;;;;;1.70;1.53;;;;;;;20.40;100.00;97315.00;5070056;27;103269;-64
2022/07/09 08:44:12;;;;;;;4.53;1.60;;;;;;;20.26;100.00;97310.56;5069337;27;102035;-65
2022/07/09 08:46:40;;;;;;;3.63;1.50;;;;;;;20.58;100.00;97310.69;5070746;27;102549;-67
2022/07/09 08:49:08;;;;;;;4.37;1.33;;;;;;;20.69;100.00;97312.16;5069994;27;104081;-66
2022/07/09 08:51:37;;;;;;;5.27;1.63;;;;;;;20.31;100.00;97305.09;5073534;27;101796;-64
2022/07/09 08:54:08;;;;;;;3.60;1.60;;;;;;;20.64;100.00;97302.22;5068531;27;103897;-64
2022/07/09 08:56:35;;;;;;;2.73;1.43;;;;;;;20.75;100.00;97302.88;5070956;27;101751;-63
2022/07/09 08:59:03;;;;;;;4.70;1.50;;;;;;;20.72;100.00;97300.78;5069301;27;103635;-64
2022/07/09 09:01:30;;;;;;;5.50;1.30;;;;;;;20.66;100.00;97301.94;5068270;27;105868;-63
2022/07/09 09:03:57;;;;;;;3.57;1.60;;;;;;;20.69;100.00;97296.75;5069061;27;102085;-66
2022/07/09 09:06:24;;;;;;;4.23;1.40;;;;;;;20.83;100.00;97299.53;5069059;27;105205;-67
2022/07/09 09:08:55;;;;;;;2.53;1.50;;;;;;;21.03;100.00;97299.25;5069970;27;103106;-65
2022/07/09 09:11:25;;;;;;;2.47;1.40;;;;;;;20.66;100.00;97301.94;5072582;27;101865;-65
2022/07/09 09:13:53;;;;;;;1.90;1.30;;;;;;;20.89;100.00;97284.88;5068079;27;106098;-66
2022/07/09 09:16:22;;;;;;;3.03;1.30;;;;;;;20.99;100.00;97290.91;5070406;27;101841;-66
2022/07/09 09:18:50;;;;;;;2.50;1.30;;;;;;;20.82;100.00;97289.81;5070564;27;102391;-66
2022/07/09 09:21:20;;;;;;;4.03;1.70;;;;;;;20.82;100.00;97284.41;5069781;27;102650;-66
2022/07/09 09:23:52;;;;;;;2.87;1.30;;;;;;;20.56;100.00;97291.28;5068593;27;101966;-66
2022/07/09 09:26:21;;;;;;;1.20;1.10;;;;;;;20.82;100.00;97273.59;5070601;27;102244;-66
2022/07/09 09:28:51;;;;;;;2.53;1.23;;;;;;;20.54;100.00;97288.84;5069841;27;102875;-66
2022/07/09 09:31:26;;;;;;;3.87;1.33;;;;;;;20.63;100.00;97292.53;5070518;27;101862;-66
2022/07/09 09:33:55;;;;;;;2.47;1.50;;;;;;;21.03;100.00;97274.91;5072649;27;102412;-66
2022/07/09 09:36:33;;;;;;;1.40;1.20;;;;;;;20.90;100.00;97286.47;5068585;27;101970;-66
2022/07/09 09:39:15;;;;;;;1.87;1.20;;;;;;;21.01;100.00;97277.09;5071644;27;105742;-66
2022/07/09 09:41:45;;;;;;;2.27;1.30;;;;;;;21.02;100.00;97273.28;5072975;27;102636;-66
2022/07/09 09:44:15;;;;;;;3.20;1.20;;;;;;;20.86;100.00;97280.00;5073400;27;101941;-66
2022/07/09 09:46:43;;;;;;;3.00;1.40;;;;;;;20.94;100.00;97272.09;5072025;27;104058;-66
2022/07/09 09:49:14;;;;;;;1.87;1.20;;;;;;;21.18;100.00;97266.53;5071315;27;105598;-66
2022/07/09 09:51:47;;;;;;;1.67;1.00;;;;;;;21.35;100.00;97269.47;5071545;27;101933;-66
2022/07/09 09:54:16;;;;;;;2.83;1.20;;;;;;;21.67;100.00;97258.63;5073487;27;102333;-66
2022/07/09 09:56:43;;;;;;;2.37;1.10;;;;;;;21.95;100.00;97257.53;5076267;27;102578;-66
2022/07/09 09:59:11;;;;;;;0.97;0.87;;;;;;;21.93;100.00;97254.34;5071979;27;105099;-66
2022/07/09 10:01:41;;;;;;;2.17;1.43;;;;;;;22.45;99.24;97245.69;5071428;27;103961;-66
2022/07/09 10:04:10;;;;;;;1.50;0.90;;;;;;;22.47;87.22;97248.91;5071908;27;101832;-67
2022/07/09 10:06:37;;;;;;;2.43;1.20;;;;;;;22.75;95.13;97243.09;5073310;27;102627;-67
2022/07/09 10:09:07;;;;;;;1.13;1.00;;;;;;;22.90;98.17;97240.03;5072764;27;102640;-67
2022/07/09 10:11:41;;;;;;;1.70;1.00;;;;;;;22.62;72.69;97238.50;5073101;27;101864;-66
2022/07/09 10:14:08;;;;;;;1.60;0.83;;;;;;;22.65;73.93;97237.91;5073234;27;101823;-66
2022/07/09 10:16:40;;;;;;;2.17;1.10;;;;;;;22.94;78.70;97232.06;5072625;27;103139;-66
2022/07/09 10:19:08;;;;;;;2.20;1.00;;;;;;;23.12;67.36;97237.31;5074901;27;101980;-66
2022/07/09 10:21:36;;;;;;;2.20;1.10;;;;;;;23.02;83.72;97231.31;5070779;27;105746;-66
2022/07/09 10:24:04;;;;;;;2.63;1.10;;;;;;;23.47;68.58;97243.75;5071654;27;102020;-66
2022/07/09 10:26:46;;;;;;;3.77;1.20;;;;;;;23.44;67.73;97233.53;5073074;27;102383;-66
2022/07/09 10:29:27;;;;;;;3.70;1.23;;;;;;;23.14;63.14;97239.69;5072462;27;103597;-66
2022/07/09 10:31:57;;;;;;;3.90;1.10;;;;;;;22.53;66.93;97239.53;5071266;27;101871;-67
2022/07/09 10:34:55;;;;;;;1.70;1.10;;;;;;;22.89;81.05;97226.75;5071331;27;105002;-67
2022/07/09 10:37:32;;;;;;;1.40;1.03;;;;;;;23.46;80.88;97234.81;5070890;27;105753;-67
2022/07/09 10:40:09;;;;;;;1.20;1.00;;;;;;;23.41;80.41;97226.81;5072835;27;102151;-67
2022/07/09 10:42:36;;;;;;;2.83;0.80;;;;;;;23.75;65.19;97224.25;5074079;27;105497;-67
2022/07/09 10:45:04;;;;;;;3.13;1.00;;;;;;;24.24;61.82;97223.94;5071287;27;101921;-67
2022/07/09 10:47:39;;;;;;;2.00;1.10;;;;;;;24.61;70.16;97222.56;5070925;27;105163;-67
2022/07/09 10:50:07;;;;;;;2.10;0.73;;;;;;;24.29;67.70;97218.34;5070438;27;105513;-67
2022/07/09 10:52:35;;;;;;;1.93;0.90;;;;;;;23.77;67.43;97215.78;5070871;27;101768;-67
2022/07/09 10:55:02;;;;;;;1.67;1.27;;;;;;;23.32;68.80;97211.59;5072542;27;102257;-67
2022/07/09 10:57:30;;;;;;;3.07;1.30;;;;;;;24.10;67.55;97217.03;5070602;27;105342;-66
2022/07/09 10:59:57;;;;;;;2.10;1.20;;;;;;;25.08;70.14;97216.16;5070944;27;102050;-67
2022/07/09 11:02:25;;;;;;;1.90;1.03;;;;;;;25.14;63.11;97217.59;5072425;27;102884;-67
2022/07/09 11:04:54;;;;;;;2.67;1.10;;;;;;;24.49;61.56;97217.75;5075277;27;102712;-66
2022/07/09 11:07:23;;;;;;;1.73;0.90;;;;;;;24.77;66.58;97207.38;5072583;27;102501;-67
2022/07/09 11:09:50;;;;;;;2.57;0.73;;;;;;;23.71;60.35;97211.63;5071493;27;104205;-67
2022/07/09 11:12:18;;;;;;;2.10;0.90;;;;;;;24.72;75.24;97221.13;5070875;27;101878;-66
2022/07/09 11:14:46;;;;;;;1.07;0.90;;;;;;;25.83;70.64;97216.28;5072116;27;102752;-67
2022/07/09 11:17:16;;;;;;;1.10;0.90;;;;;;;25.15;52.53;97202.84;5071724;27;102727;-67
2022/07/09 11:19:43;;;;;;;2.27;0.90;;;;;;;24.45;63.72;97200.47;5071717;27;102024;-67
2022/07/09 11:22:12;;;;;;;2.10;0.70;;;;;;;23.97;55.54;97197.03;5070477;27;103717;-67
2022/07/09 11:24:39;;;;;;;1.50;0.90;;;;;;;24.62;52.65;97200.50;5074982;27;102700;-67